createdAt,value
2022-09-28T00:01:10.457Z,100.00
2022-09-28T00:03:59.774Z,100.00
2022-09-28T00:06:45.503Z,100.00
2022-09-28T00:09:30.684Z,100.00
2022-09-28T00:12:16.321Z,100.00
2022-09-28T00:15:03.106Z,100.00
2022-09-28T00:17:48.733Z,100.00
2022-09-28T00:20:33.983Z,100.00
2022-09-28T00:23:19.166Z,100.00
2022-09-28T00:26:05.619Z,100.00
2022-09-28T00:28:52.654Z,100.00
2022-09-28T00:31:38.196Z,100.00
2022-09-28T00:34:23.406Z,100.00
2022-09-28T00:37:09.830Z,100.00
2022-09-28T00:39:55.670Z,100.00
2022-09-28T00:42:42.832Z,100.00
2022-09-28T00:45:28.489Z,100.00
2022-09-28T00:48:13.843Z,100.00
2022-09-28T00:51:02.427Z,100.00
2022-09-28T00:53:49.964Z,100.00
2022-09-28T00:56:40.318Z,100.00
2022-09-28T00:59:26.638Z,100.00
2022-09-28T01:02:12.076Z,100.00
2022-09-28T01:04:59.429Z,100.00
2022-09-28T01:07:47.028Z,100.00
2022-09-28T01:10:32.385Z,100.00
2022-09-28T01:13:19.343Z,100.00
2022-09-28T01:16:12.928Z,100.00
2022-09-28T01:19:16.870Z,100.00
2022-09-28T01:22:20.989Z,100.00
2022-09-28T01:25:12.943Z,100.00
2022-09-28T01:28:05.553Z,100.00
2022-09-28T01:31:07.470Z,100.00
2022-09-28T01:33:57.457Z,100.00
2022-09-28T01:36:48.571Z,100.00
2022-09-28T01:39:39.540Z,100.00
2022-09-28T01:42:31.126Z,100.00
2022-09-28T01:45:26.209Z,100.00
2022-09-28T01:48:17.388Z,100.00
2022-09-28T01:51:08.116Z,100.00
2022-09-28T01:53:58.402Z,100.00
2022-09-28T01:56:49.558Z,100.00
2022-09-28T01:59:38.347Z,100.00
2022-09-28T02:02:30.197Z,100.00
2022-09-28T02:05:20.917Z,100.00
2022-09-28T02:08:27.160Z,100.00
2022-09-28T02:11:15.694Z,100.00
2022-09-28T02:14:05.142Z,100.00
2022-09-28T02:16:54.195Z,100.00
2022-09-28T02:19:40.400Z,100.00
2022-09-28T02:22:33.753Z,100.00
2022-09-28T02:25:38.350Z,100.00
2022-09-28T02:28:23.956Z,100.00
2022-09-28T02:31:09.358Z,100.00
2022-09-28T02:33:57.606Z,100.00
2022-09-28T02:36:45.019Z,100.00
2022-09-28T02:39:30.518Z,100.00
2022-09-28T02:42:29.460Z,100.00
2022-09-28T02:45:43.960Z,100.00
2022-09-28T02:49:17.236Z,100.00
2022-09-28T02:52:26.951Z,100.00
2022-09-28T02:55:48.737Z,100.00
2022-09-28T02:58:47.883Z,100.00
2022-09-28T03:01:44.595Z,100.00
2022-09-28T03:04:44.650Z,100.00
2022-09-28T03:07:36.753Z,100.00
2022-09-28T03:10:31.137Z,100.00
2022-09-28T03:13:17.359Z,100.00
2022-09-28T03:16:15.427Z,100.00
2022-09-28T03:19:01.061Z,100.00
2022-09-28T03:21:46.373Z,100.00
2022-09-28T03:24:32.124Z,100.00
2022-09-28T03:27:17.588Z,100.00
2022-09-28T03:30:03.799Z,100.00
2022-09-28T03:32:58.457Z,100.00
2022-09-28T03:35:46.876Z,100.00
2022-09-28T03:38:32.223Z,100.00
2022-09-28T03:41:17.619Z,100.00
2022-09-28T03:44:03.576Z,100.00
2022-09-28T03:46:49.181Z,100.00
2022-09-28T03:49:34.521Z,100.00
2022-09-28T03:52:19.653Z,100.00
2022-09-28T03:55:05.619Z,100.00
2022-09-28T03:57:55.825Z,100.00
2022-09-28T04:00:41.007Z,100.00
2022-09-28T04:03:26.610Z,100.00
2022-09-28T04:06:12.615Z,100.00
2022-09-28T04:08:58.251Z,100.00
2022-09-28T04:12:02.803Z,100.00
2022-09-28T04:14:49.510Z,100.00
2022-09-28T04:17:39.783Z,100.00
2022-09-28T04:20:25.652Z,100.00
2022-09-28T04:23:11.333Z,100.00
2022-09-28T04:25:56.944Z,100.00
2022-09-28T04:29:06.309Z,100.00
2022-09-28T04:31:53.723Z,100.00
2022-09-28T04:34:43.730Z,100.00
2022-09-28T04:37:31.286Z,100.00
2022-09-28T04:40:16.612Z,100.00
2022-09-28T04:43:02.308Z,100.00
2022-09-28T04:45:48.429Z,100.00
2022-09-28T04:48:33.798Z,100.00
2022-09-28T04:51:19.485Z,100.00
2022-09-28T04:54:04.685Z,100.00
2022-09-28T04:56:51.123Z,100.00
2022-09-28T04:59:37.649Z,100.00
2022-09-28T05:02:23.265Z,100.00
2022-09-28T05:05:08.780Z,100.00
2022-09-28T05:07:58.180Z,100.00
2022-09-28T05:10:43.817Z,100.00
2022-09-28T05:13:30.345Z,100.00
2022-09-28T05:16:16.459Z,100.00
2022-09-28T05:19:01.938Z,100.00
2022-09-28T05:21:48.727Z,100.00
2022-09-28T05:24:34.466Z,100.00
2022-09-28T05:27:19.893Z,100.00
2022-09-28T05:30:05.861Z,100.00
2022-09-28T05:32:51.567Z,100.00
2022-09-28T05:35:37.047Z,100.00
2022-09-28T05:38:23.046Z,100.00
2022-09-28T05:41:08.482Z,100.00
2022-09-28T05:43:55.025Z,100.00
2022-09-28T05:46:40.654Z,100.00
2022-09-28T05:49:29.042Z,100.00
2022-09-28T05:52:14.856Z,100.00
2022-09-28T05:55:00.457Z,100.00
2022-09-28T05:57:46.092Z,100.00
2022-09-28T06:00:33.373Z,100.00
2022-09-28T06:03:18.995Z,100.00
2022-09-28T06:06:04.506Z,100.00
2022-09-28T06:08:50.038Z,100.00
2022-09-28T06:11:35.549Z,100.00
2022-09-28T06:14:21.206Z,100.00
2022-09-28T06:17:06.734Z,100.00
2022-09-28T06:19:53.153Z,100.00
2022-09-28T06:22:39.129Z,100.00
2022-09-28T06:25:25.019Z,100.00
2022-09-28T06:28:13.522Z,100.00
2022-09-28T06:31:02.002Z,100.00
2022-09-28T06:33:48.258Z,100.00
2022-09-28T06:36:33.815Z,100.00
2022-09-28T06:39:19.641Z,100.00
2022-09-28T06:42:04.975Z,100.00
2022-09-28T06:44:50.420Z,100.00
2022-09-28T06:47:35.901Z,100.00
2022-09-28T06:50:21.301Z,100.00
2022-09-28T06:53:10.298Z,100.00
2022-09-28T06:55:56.068Z,100.00
2022-09-28T06:58:41.607Z,100.00
2022-09-28T07:01:27.282Z,100.00
2022-09-28T07:04:12.693Z,100.00
2022-09-28T07:06:59.675Z,100.00
2022-09-28T07:09:50.343Z,100.00
2022-09-28T07:12:38.747Z,100.00
2022-09-28T07:15:24.586Z,100.00
2022-09-28T07:18:11.251Z,100.00
2022-09-28T07:20:57.479Z,100.00
2022-09-28T07:23:52.160Z,100.00
2022-09-28T07:26:38.983Z,100.00
2022-09-28T07:29:25.247Z,100.00
2022-09-28T07:32:10.885Z,100.00
2022-09-28T07:34:58.860Z,100.00
2022-09-28T07:37:44.678Z,100.00
2022-09-28T07:40:50.078Z,100.00
2022-09-28T07:43:35.606Z,100.00
2022-09-28T07:46:22.101Z,100.00
2022-09-28T07:49:11.383Z,100.00
2022-09-28T07:51:58.085Z,100.00
2022-09-28T07:54:43.393Z,100.00
2022-09-28T07:57:28.985Z,100.00
2022-09-28T08:00:14.941Z,100.00
2022-09-28T08:03:01.132Z,100.00
2022-09-28T08:05:47.388Z,100.00
2022-09-28T08:08:35.762Z,100.00
2022-09-28T08:11:21.318Z,100.00
2022-09-28T08:14:07.135Z,100.00
2022-09-28T08:16:53.397Z,100.00
2022-09-28T08:19:58.023Z,100.00
2022-09-28T08:22:44.140Z,100.00
2022-09-28T08:25:29.458Z,100.00
2022-09-28T08:28:17.483Z,100.00
2022-09-28T08:31:03.285Z,100.00
2022-09-28T08:33:53.703Z,100.00
2022-09-28T08:36:39.415Z,100.00
2022-09-28T08:39:25.001Z,100.00
2022-09-28T08:42:37.413Z,100.00
2022-09-28T08:45:27.519Z,100.00
2022-09-28T08:48:48.200Z,100.00
2022-09-28T08:51:53.729Z,100.00
2022-09-28T08:55:14.629Z,100.00
2022-09-28T08:58:14.810Z,100.00
2022-09-28T09:01:00.661Z,98.47
2022-09-28T09:03:48.640Z,93.03
2022-09-28T09:07:10.391Z,90.78
2022-09-28T09:10:22.095Z,94.08
2022-09-28T09:13:40.171Z,89.72
2022-09-28T09:16:35.589Z,92.83
2022-09-28T09:19:35.459Z,96.69
2022-09-28T09:22:38.959Z,95.20
2022-09-28T09:25:45.520Z,94.73
2022-09-28T09:29:04.706Z,95.66
2022-09-28T09:32:20.369Z,91.10
2022-09-28T09:35:49.540Z,86.85
2022-09-28T09:39:03.060Z,82.70
2022-09-28T09:42:23.524Z,77.12
2022-09-28T09:45:36.811Z,73.43
2022-09-28T09:48:29.759Z,70.08
2022-09-28T09:51:32.832Z,73.46
2022-09-28T09:54:32.858Z,74.44
2022-09-28T09:57:30.031Z,74.08
2022-09-28T10:00:16.285Z,81.10
2022-09-28T10:03:02.954Z,82.32
2022-09-28T10:05:55.995Z,81.83
2022-09-28T10:08:46.853Z,80.65
2022-09-28T10:11:37.112Z,78.59
2022-09-28T10:14:24.781Z,81.44
2022-09-28T10:17:15.232Z,83.22
2022-09-28T10:20:01.046Z,83.82
2022-09-28T10:22:47.083Z,77.46
2022-09-28T10:25:37.446Z,78.34
2022-09-28T10:28:34.035Z,79.20
2022-09-28T10:31:37.970Z,78.53
2022-09-28T10:34:30.736Z,74.64
2022-09-28T10:37:17.982Z,65.89
2022-09-28T10:40:03.481Z,66.20
2022-09-28T10:42:48.873Z,70.12
2022-09-28T10:45:36.949Z,73.09
2022-09-28T10:48:22.398Z,74.33
2022-09-28T10:51:08.174Z,73.26
2022-09-28T10:54:02.070Z,75.25
2022-09-28T10:56:49.468Z,78.42
2022-09-28T10:59:39.138Z,82.58
2022-09-28T11:02:35.663Z,87.87
2022-09-28T11:05:24.609Z,84.96
2022-09-28T11:08:25.066Z,86.77
2022-09-28T11:11:13.484Z,85.41
2022-09-28T11:14:03.424Z,84.71
2022-09-28T11:17:08.940Z,92.73
2022-09-28T11:19:56.242Z,89.68
2022-09-28T11:22:42.274Z,87.23
2022-09-28T11:25:29.800Z,88.19
2022-09-28T11:28:23.913Z,89.23
2022-09-28T11:31:09.999Z,94.31
2022-09-28T11:34:31.421Z,92.82
2022-09-28T11:37:55.526Z,87.00
2022-09-28T11:40:58.975Z,88.41
2022-09-28T11:43:52.358Z,89.11
2022-09-28T11:46:55.278Z,90.65
2022-09-28T11:49:49.736Z,86.47
2022-09-28T11:53:05.935Z,85.89
2022-09-28T11:55:59.546Z,79.89
2022-09-28T11:58:49.033Z,78.78
2022-09-28T12:01:43.584Z,83.46
2022-09-28T12:04:41.550Z,78.61
2022-09-28T12:07:37.330Z,75.38
2022-09-28T12:10:48.013Z,76.00
2022-09-28T12:13:37.262Z,68.81
2022-09-28T12:17:04.197Z,71.51
2022-09-28T12:19:59.277Z,67.21
2022-09-28T12:22:54.294Z,68.15
2022-09-28T12:25:46.610Z,68.91
2022-09-28T12:28:42.114Z,76.61
2022-09-28T12:31:39.734Z,74.02
2022-09-28T12:34:25.110Z,78.25
2022-09-28T12:37:36.221Z,77.60
2022-09-28T12:40:55.604Z,83.35
2022-09-28T12:43:54.478Z,81.58
2022-09-28T12:46:47.673Z,79.46
2022-09-28T12:53:07.287Z,77.74
2022-09-28T12:56:18.029Z,78.80
2022-09-28T12:59:18.053Z,76.88
2022-09-28T13:02:42.227Z,75.39
2022-09-28T13:05:44.158Z,81.51
2022-09-28T13:08:46.640Z,78.11
2022-09-28T13:11:41.203Z,76.70
2022-09-28T13:14:53.065Z,78.67
2022-09-28T13:17:46.404Z,77.36
2022-09-28T13:20:55.604Z,76.52
2022-09-28T13:23:46.745Z,78.81
2022-09-28T13:26:40.337Z,79.02
2022-09-28T13:29:27.025Z,83.45
2022-09-28T13:32:12.937Z,81.62
2022-09-28T13:34:59.300Z,76.41
2022-09-28T13:37:45.310Z,77.44
2022-09-28T13:41:04.527Z,83.08
2022-09-28T13:44:12.277Z,78.83
2022-09-28T13:47:20.006Z,78.11
2022-09-28T13:50:34.588Z,77.14
2022-09-28T13:53:19.736Z,76.22
2022-09-28T13:56:36.109Z,68.99
2022-09-28T13:59:26.587Z,68.84
2022-09-28T14:02:37.998Z,74.86
2022-09-28T14:05:23.362Z,76.40
2022-09-28T14:08:08.723Z,78.53
2022-09-28T14:10:56.477Z,78.54
2022-09-28T14:13:42.410Z,77.43
2022-09-28T14:16:33.274Z,78.23
2022-09-28T14:19:24.214Z,80.47
2022-09-28T14:22:44.854Z,80.90
2022-09-28T14:25:32.234Z,80.00
2022-09-28T14:28:36.728Z,80.66
2022-09-28T14:31:28.857Z,80.76
2022-09-28T14:34:33.970Z,78.08
2022-09-28T14:37:44.288Z,76.75
2022-09-28T14:41:10.012Z,78.48
2022-09-28T14:44:08.562Z,76.62
2022-09-28T14:47:24.891Z,76.76
2022-09-28T14:50:26.886Z,76.82
2022-09-28T14:53:21.988Z,76.65
2022-09-28T14:56:08.786Z,76.42
2022-09-28T14:58:57.856Z,77.27
2022-09-28T15:01:55.930Z,74.37
2022-09-28T15:04:49.756Z,75.21
2022-09-28T15:07:52.539Z,73.90
2022-09-28T15:10:42.515Z,71.93
2022-09-28T15:13:28.826Z,72.49
2022-09-28T15:16:17.221Z,72.63
2022-09-28T15:19:29.812Z,71.05
2022-09-28T15:22:20.366Z,72.07
2022-09-28T15:25:15.181Z,67.65
2022-09-28T15:28:13.312Z,67.27
2022-09-28T15:31:02.418Z,66.75
2022-09-28T15:34:06.376Z,67.70
2022-09-28T15:36:56.315Z,72.46
2022-09-28T15:39:42.284Z,73.99
2022-09-28T15:42:27.509Z,75.72
2022-09-28T15:45:39.379Z,72.95
2022-09-28T15:48:40.595Z,79.05
2022-09-28T15:51:28.327Z,78.30
2022-09-28T15:54:24.754Z,83.09
2022-09-28T15:57:32.775Z,80.53
2022-09-28T16:00:21.307Z,82.05
2022-09-28T16:03:06.712Z,84.92
2022-09-28T16:05:58.540Z,84.69
2022-09-28T16:08:45.876Z,82.73
2022-09-28T16:11:39.546Z,83.59
2022-09-28T16:14:27.152Z,85.33
2022-09-28T16:17:32.703Z,87.48
2022-09-28T16:20:54.380Z,86.29
2022-09-28T16:23:41.650Z,86.38
2022-09-28T16:26:33.352Z,88.75
2022-09-28T16:29:39.697Z,85.82
2022-09-28T16:32:25.177Z,88.86
2022-09-28T16:35:10.869Z,88.05
2022-09-28T16:38:17.676Z,89.22
2022-09-28T16:41:03.075Z,93.01
2022-09-28T16:43:49.673Z,90.95
2022-09-28T16:46:37.509Z,92.87
2022-09-28T16:49:25.242Z,93.98
2022-09-28T16:52:12.482Z,98.33
2022-09-28T16:55:38.832Z,100.00
2022-09-28T16:58:22.487Z,100.00
2022-09-28T17:01:12.048Z,100.00
2022-09-28T17:03:57.645Z,100.00
2022-09-28T17:06:43.457Z,100.00
2022-09-28T17:09:29.331Z,100.00
2022-09-28T17:12:24.470Z,100.00
2022-09-28T17:15:09.976Z,100.00
2022-09-28T17:17:55.770Z,100.00
2022-09-28T17:20:44.133Z,100.00
2022-09-28T17:23:30.057Z,100.00
2022-09-28T17:26:30.592Z,100.00
2022-09-28T17:29:16.501Z,100.00
2022-09-28T17:32:02.268Z,100.00
2022-09-28T17:35:00.872Z,100.00
2022-09-28T17:37:52.581Z,100.00
2022-09-28T17:40:39.038Z,100.00
2022-09-28T17:43:24.680Z,100.00
2022-09-28T17:46:27.316Z,100.00
2022-09-28T17:49:12.738Z,100.00
2022-09-28T17:51:58.214Z,100.00
2022-09-28T17:54:44.132Z,100.00
2022-09-28T17:57:29.523Z,100.00
2022-09-28T18:00:16.879Z,100.00
2022-09-28T18:03:02.319Z,100.00
2022-09-28T18:05:53.566Z,100.00
2022-09-28T18:08:39.155Z,100.00
2022-09-28T18:11:24.844Z,100.00
2022-09-28T18:14:11.321Z,100.00
2022-09-28T18:16:57.355Z,100.00
2022-09-28T18:19:42.933Z,100.00
2022-09-28T18:22:28.751Z,100.00
2022-09-28T18:25:14.299Z,100.00
2022-09-28T18:28:00.080Z,100.00
2022-09-28T18:30:45.865Z,100.00
2022-09-28T18:33:31.427Z,100.00
2022-09-28T18:36:17.064Z,100.00
2022-09-28T18:39:03.085Z,100.00
2022-09-28T18:41:48.462Z,100.00
2022-09-28T18:44:34.032Z,100.00
2022-09-28T18:47:19.793Z,100.00
2022-09-28T18:50:06.003Z,100.00
2022-09-28T18:52:51.531Z,100.00
2022-09-28T18:55:39.260Z,100.00
2022-09-28T18:58:24.860Z,100.00
2022-09-28T19:01:29.396Z,100.00
2022-09-28T19:04:15.897Z,100.00
2022-09-28T19:07:01.462Z,100.00
2022-09-28T19:09:47.160Z,100.00
2022-09-28T19:12:32.617Z,100.00
2022-09-28T19:15:20.060Z,100.00
2022-09-28T19:18:05.399Z,100.00
2022-09-28T19:20:50.889Z,100.00
2022-09-28T19:23:37.138Z,100.00
2022-09-28T19:26:25.308Z,100.00
2022-09-28T19:29:10.937Z,100.00
2022-09-28T19:31:57.072Z,100.00
2022-09-28T19:34:45.413Z,100.00
2022-09-28T19:37:35.273Z,100.00
2022-09-28T19:40:20.703Z,100.00
2022-09-28T19:43:06.422Z,100.00
2022-09-28T19:45:53.634Z,100.00
2022-09-28T19:48:42.217Z,100.00
2022-09-28T19:51:28.739Z,100.00
2022-09-28T19:54:14.756Z,100.00
2022-09-28T19:57:00.759Z,100.00
2022-09-28T19:59:50.679Z,100.00
2022-09-28T20:02:38.095Z,100.00
2022-09-28T20:05:23.766Z,100.00
2022-09-28T20:08:09.642Z,100.00
2022-09-28T20:10:56.664Z,100.00
2022-09-28T20:13:42.286Z,100.00
2022-09-28T20:16:28.778Z,100.00
2022-09-28T20:19:14.801Z,100.00
2022-09-28T20:22:02.488Z,100.00
2022-09-28T20:24:47.873Z,100.00
2022-09-28T20:27:33.496Z,100.00
2022-09-28T20:30:18.733Z,100.00
2022-09-28T20:33:07.341Z,100.00
2022-09-28T20:35:52.939Z,100.00
2022-09-28T20:38:40.417Z,100.00
2022-09-28T20:41:26.378Z,100.00
2022-09-28T20:44:12.098Z,100.00
2022-09-28T20:46:57.499Z,100.00
2022-09-28T20:49:42.830Z,100.00
2022-09-28T20:52:28.611Z,100.00
2022-09-28T20:55:14.053Z,100.00
2022-09-28T20:58:03.194Z,100.00
2022-09-28T21:00:48.803Z,100.00
2022-09-28T21:03:35.273Z,100.00
2022-09-28T21:06:22.293Z,100.00
2022-09-28T21:09:09.546Z,100.00
2022-09-28T21:11:55.697Z,100.00
2022-09-28T21:14:41.088Z,100.00
2022-09-28T21:17:26.795Z,100.00
2022-09-28T21:20:12.138Z,100.00
2022-09-28T21:22:57.837Z,100.00
2022-09-28T21:25:45.494Z,100.00
2022-09-28T21:28:30.943Z,100.00
2022-09-28T21:31:16.516Z,100.00
2022-09-28T21:34:04.579Z,100.00
2022-09-28T21:36:54.630Z,100.00
2022-09-28T21:39:40.101Z,100.00
2022-09-28T21:42:25.754Z,100.00
2022-09-28T21:45:11.363Z,100.00
2022-09-28T21:47:58.413Z,100.00
2022-09-28T21:51:04.065Z,100.00
2022-09-28T21:53:49.712Z,100.00
2022-09-28T21:56:35.295Z,100.00
2022-09-28T21:59:20.937Z,100.00
2022-09-28T22:02:06.511Z,100.00
2022-09-28T22:04:51.998Z,100.00
2022-09-28T22:07:38.729Z,100.00
2022-09-28T22:10:24.340Z,100.00
2022-09-28T22:13:09.658Z,100.00
2022-09-28T22:15:55.841Z,100.00
2022-09-28T22:18:41.935Z,100.00
2022-09-28T22:21:33.252Z,100.00
2022-09-28T22:24:18.967Z,100.00
2022-09-28T22:27:04.633Z,100.00
2022-09-28T22:29:50.979Z,100.00
2022-09-28T22:32:36.284Z,100.00
2022-09-28T22:35:21.733Z,100.00
2022-09-28T22:38:07.270Z,100.00
2022-09-28T22:40:56.445Z,100.00
2022-09-28T22:43:45.117Z,100.00
2022-09-28T22:46:33.626Z,100.00
2022-09-28T22:49:19.676Z,100.00
2022-09-28T22:52:05.224Z,100.00
2022-09-28T22:54:51.177Z,100.00
2022-09-28T22:57:36.747Z,100.00
2022-09-28T23:00:22.257Z,100.00
2022-09-28T23:03:07.841Z,100.00
2022-09-28T23:05:54.682Z,100.00
2022-09-28T23:08:40.299Z,100.00
2022-09-28T23:11:26.005Z,100.00
2022-09-28T23:14:12.425Z,100.00
2022-09-28T23:16:57.873Z,100.00
2022-09-28T23:19:43.536Z,100.00
2022-09-28T23:22:29.110Z,100.00
2022-09-28T23:25:16.097Z,100.00
2022-09-28T23:28:01.543Z,100.00
2022-09-28T23:30:47.920Z,100.00
2022-09-28T23:33:34.085Z,100.00
2022-09-28T23:36:19.773Z,100.00
2022-09-28T23:39:05.325Z,100.00
2022-09-28T23:41:50.883Z,100.00
2022-09-28T23:44:36.722Z,100.00
2022-09-28T23:47:21.955Z,100.00
2022-09-28T23:50:07.720Z,100.00
2022-09-28T23:52:53.580Z,100.00
2022-09-28T23:55:39.212Z,100.00
2022-09-28T23:58:25.650Z,100.00
